Time;durP1;ratioP1;P1;durP2;ratioP2;P2;SDS_P1;SDS_P2;PMS_P1;PMS_P2;Temp;Humidity;BMP_temperature;BMP_pressure;BME280_temperature;BME280_humidity;BME280_pressure;Samples;Min_cycle;Max_cycle;Signal;HPM_P1;HPM_P2
2023/03/09 00:01:42;;;;;;;2.90;1.63;;;14.10;51.80;;;;;;5088160;28;45306;-75
2023/03/09 00:04:10;;;;;;;2.58;1.58;;;14.10;51.70;;;;;;5088481;28;45438;-74
2023/03/09 00:06:37;;;;;;;1.63;1.40;;;14.10;51.70;;;;;;5088609;28;45190;-74
2023/03/09 00:09:05;;;;;;;5.60;1.52;;;14.10;52.10;;;;;;5087877;28;45652;-74
2023/03/09 00:11:32;;;;;;;3.55;1.55;;;14.10;52.00;;;;;;5088278;28;45391;-74
2023/03/09 00:13:59;;;;;;;2.88;1.70;;;14.10;51.80;;;;;;5087165;27;45313;-74
2023/03/09 00:16:27;;;;;;;1.40;1.27;;;14.10;51.90;;;;;;5088259;28;45386;-75
2023/03/09 00:18:54;;;;;;;2.08;1.30;;;14.10;51.90;;;;;;5088205;28;46431;-74
2023/03/09 00:21:36;;;;;;;1.73;1.48;;;14.10;51.80;;;;;;5088186;28;45410;-77
2023/03/09 00:24:03;;;;;;;1.67;1.55;;;14.10;51.70;;;;;;5088311;28;45344;-74
2023/03/09 00:26:31;;;;;;;2.35;1.38;;;14.10;51.80;;;;;;5088261;28;45440;-74
2023/03/09 00:28:57;;;;;;;1.10;1.00;;;14.10;51.70;;;;;;5087705;28;45378;-74
2023/03/09 00:31:24;;;;;;;2.13;1.23;;;14.10;51.80;;;;;;5087837;28;45451;-74
2023/03/09 00:33:51;;;;;;;1.58;1.48;;;14.10;51.80;;;;;;5087684;28;45242;-74
2023/03/09 00:36:18;;;;;;;2.10;1.73;;;14.10;51.90;;;;;;5087997;28;45318;-74
2023/03/09 00:38:51;;;;;;;4.30;1.20;;;14.10;51.70;;;;;;5087427;28;46444;-74
2023/03/09 00:41:18;;;;;;;2.13;1.30;;;14.10;51.80;;;;;;5087443;28;45340;-73
2023/03/09 00:43:47;;;;;;;1.20;1.00;;;14.10;51.60;;;;;;5087601;28;45241;-74
2023/03/09 00:46:14;;;;;;;1.15;1.10;;;14.10;51.70;;;;;;5087672;28;45260;-75
2023/03/09 00:48:41;;;;;;;2.90;1.33;;;14.10;51.60;;;;;;5087277;28;46713;-73
2023/03/09 00:51:08;;;;;;;1.38;1.27;;;14.10;51.70;;;;;;5087164;28;46084;-74
2023/03/09 00:53:35;;;;;;;1.20;1.08;;;14.00;51.80;;;;;;5087304;28;45303;-74
2023/03/09 00:56:02;;;;;;;2.00;1.30;;;14.10;51.70;;;;;;5087831;28;45316;-74
2023/03/09 00:58:29;;;;;;;1.05;0.95;;;14.00;51.80;;;;;;5087152;28;45575;-74
2023/03/09 01:00:57;;;;;;;1.35;1.02;;;14.10;51.70;;;;;;5087337;28;45336;-73
2023/03/09 01:03:24;;;;;;;2.17;1.30;;;14.00;51.90;;;;;;5087057;28;45388;-73
2023/03/09 01:05:51;;;;;;;2.00;1.20;;;14.00;51.80;;;;;;5087487;28;45324;-74
2023/03/09 01:08:18;;;;;;;1.30;1.10;;;14.00;52.00;;;;;;5087134;28;47255;-73
2023/03/09 01:10:46;;;;;;;1.55;1.00;;;14.00;52.80;;;;;;5086809;28;45307;-74
2023/03/09 01:13:12;;;;;;;1.25;1.05;;;14.00;52.20;;;;;;5087111;28;45328;-74
2023/03/09 01:15:39;;;;;;;1.73;1.10;;;14.00;52.00;;;;;;5086911;28;45308;-74
2023/03/09 01:18:08;;;;;;;1.40;1.05;;;14.00;52.10;;;;;;5086907;28;46480;-74
2023/03/09 01:20:34;;;;;;;0.80;0.80;;;14.00;52.10;;;;;;5086521;28;45380;-74
2023/03/09 01:23:01;;;;;;;1.45;1.02;;;14.00;52.20;;;;;;5086970;28;45261;-73
2023/03/09 01:25:28;;;;;;;1.40;1.20;;;14.00;52.20;;;;;;5086982;28;45457;-74
2023/03/09 01:27:55;;;;;;;1.33;0.73;;;14.00;52.20;;;;;;5086970;28;46339;-73
2023/03/09 01:30:22;;;;;;;4.93;1.92;;;14.00;52.00;;;;;;5086761;28;45355;-73
2023/03/09 01:32:49;;;;;;;3.70;1.10;;;14.00;52.00;;;;;;5086573;28;45378;-73
2023/03/09 01:35:17;;;;;;;1.15;1.02;;;14.00;52.10;;;;;;5086979;28;45155;-74
2023/03/09 01:37:44;;;;;;;0.90;0.90;;;14.00;52.00;;;;;;5086514;28;45310;-75
2023/03/09 01:40:13;;;;;;;2.13;1.30;;;14.00;52.00;;;;;;5086370;28;45425;-73
2023/03/09 01:42:39;;;;;;;2.03;1.30;;;14.00;52.20;;;;;;5086396;28;45420;-73
2023/03/09 01:45:40;;;;;;;1.88;1.15;;;14.00;52.20;;;;;;5087045;28;45591;-73
2023/03/09 01:48:07;;;;;;;1.42;0.85;;;14.00;52.30;;;;;;5068576;28;45443;-73
2023/03/09 01:50:35;;;;;;;1.30;1.20;;;14.00;52.40;;;;;;5086600;28;45407;-73
2023/03/09 01:53:05;;;;;;;2.55;1.25;;;14.00;52.50;;;;;;5086634;28;45273;-73
2023/03/09 01:55:33;;;;;;;1.58;0.73;;;14.00;52.40;;;;;;5086650;28;45334;-73
2023/03/09 01:58:02;;;;;;;1.58;0.77;;;14.00;52.40;;;;;;5086170;28;45394;-73
2023/03/09 02:00:29;;;;;;;1.30;1.02;;;14.00;52.40;;;;;;5086144;28;45300;-73
2023/03/09 02:02:57;;;;;;;1.48;0.88;;;14.00;52.40;;;;;;5086277;28;45300;-73
2023/03/09 02:05:26;;;;;;;1.73;1.08;;;14.00;52.50;;;;;;5086466;28;45566;-73
2023/03/09 02:07:55;;;;;;;1.20;1.10;;;14.00;52.20;;;;;;5086065;28;45238;-73
2023/03/09 02:10:26;;;;;;;1.98;1.02;;;14.00;52.40;;;;;;5086297;28;45486;-75
2023/03/09 02:12:59;;;;;;;1.30;0.90;;;14.00;52.50;;;;;;5086279;28;45324;-74
2023/03/09 02:15:26;;;;;;;1.35;0.93;;;14.00;52.50;;;;;;5086078;28;45335;-74
2023/03/09 02:17:53;;;;;;;2.20;1.02;;;14.00;52.50;;;;;;5086032;28;45374;-74
2023/03/09 02:20:22;;;;;;;0.98;0.90;;;14.00;52.60;;;;;;5086137;28;45296;-75
2023/03/09 02:22:49;;;;;;;1.00;0.90;;;14.00;52.50;;;;;;5086259;28;45233;-74
2023/03/09 02:25:23;;;;;;;2.40;1.15;;;14.00;52.50;;;;;;5086555;28;45280;-75
2023/03/09 02:27:51;;;;;;;1.10;0.82;;;14.00;52.50;;;;;;5086311;28;45435;-74
2023/03/09 02:30:18;;;;;;;0.80;0.80;;;14.00;52.90;;;;;;5086309;28;45328;-75
2023/03/09 02:32:45;;;;;;;1.27;0.82;;;14.00;52.60;;;;;;5086368;28;45432;-75
2023/03/09 02:35:12;;;;;;;1.90;1.10;;;14.00;52.40;;;;;;5086348;28;45573;-75
2023/03/09 02:37:39;;;;;;;1.33;1.02;;;14.00;52.50;;;;;;5085357;28;46400;-76
2023/03/09 02:40:10;;;;;;;1.13;0.90;;;13.90;52.40;;;;;;5086126;28;45511;-75
2023/03/09 02:42:38;;;;;;;0.73;0.60;;;14.00;52.50;;;;;;5086372;28;45442;-75
2023/03/09 02:45:07;;;;;;;1.10;0.80;;;14.00;52.70;;;;;;5086305;28;45442;-75
2023/03/09 02:47:36;;;;;;;1.45;0.85;;;13.90;52.70;;;;;;5086000;28;45393;-74
2023/03/09 02:50:03;;;;;;;2.13;1.20;;;13.90;52.80;;;;;;5085713;28;45341;-76
2023/03/09 02:52:30;;;;;;;1.75;1.02;;;13.90;52.70;;;;;;5085915;28;45324;-74
2023/03/09 02:54:56;;;;;;;1.60;1.10;;;13.90;53.30;;;;;;5086281;28;45336;-74
2023/03/09 02:57:23;;;;;;;1.13;0.90;;;13.90;52.70;;;;;;5085702;28;45291;-74
2023/03/09 02:59:50;;;;;;;1.33;0.82;;;13.90;52.80;;;;;;5083357;28;45328;-75
2023/03/09 03:02:18;;;;;;;0.63;0.63;;;13.90;52.50;;;;;;5085798;28;45373;-75
2023/03/09 03:04:45;;;;;;;1.00;0.95;;;13.90;52.80;;;;;;5085880;28;45299;-74
2023/03/09 03:07:12;;;;;;;1.17;0.88;;;13.90;52.80;;;;;;5085370;28;45314;-75
2023/03/09 03:09:39;;;;;;;0.82;0.82;;;13.90;52.90;;;;;;5085565;28;45403;-74
2023/03/09 03:12:07;;;;;;;2.00;1.05;;;13.90;52.90;;;;;;5085448;28;45225;-76
2023/03/09 03:14:34;;;;;;;1.65;0.88;;;13.90;52.80;;;;;;5085689;28;45276;-74
2023/03/09 03:17:01;;;;;;;1.63;1.00;;;13.90;52.80;;;;;;5084798;28;45465;-73
2023/03/09 03:19:29;;;;;;;1.52;0.70;;;13.90;52.60;;;;;;5085434;28;45278;-74
2023/03/09 03:21:56;;;;;;;0.60;0.60;;;13.90;52.70;;;;;;5085354;28;45436;-73
2023/03/09 03:24:22;;;;;;;0.68;0.68;;;13.90;52.60;;;;;;5085487;28;45528;-73
2023/03/09 03:26:49;;;;;;;1.17;0.68;;;13.90;52.50;;;;;;5085070;28;47314;-74
2023/03/09 03:29:17;;;;;;;1.27;0.80;;;13.90;52.60;;;;;;5082299;28;45441;-75
2023/03/09 03:31:43;;;;;;;0.80;0.75;;;13.80;52.50;;;;;;5085350;28;44691;-75
2023/03/09 03:34:10;;;;;;;1.10;0.90;;;13.80;52.40;;;;;;5085051;28;45301;-73
2023/03/09 03:36:39;;;;;;;0.88;0.75;;;13.80;52.40;;;;;;5084932;28;45373;-73
2023/03/09 03:39:06;;;;;;;0.85;0.73;;;13.80;52.30;;;;;;5084535;28;45366;-73
2023/03/09 03:41:33;;;;;;;2.10;0.73;;;13.80;52.40;;;;;;5085047;28;45193;-74
2023/03/09 03:44:00;;;;;;;0.73;0.70;;;13.80;52.30;;;;;;5085334;28;45251;-73
2023/03/09 03:46:26;;;;;;;0.70;0.70;;;13.80;52.40;;;;;;5084863;28;45432;-75
2023/03/09 03:48:53;;;;;;;1.10;0.65;;;13.80;52.40;;;;;;5085129;27;45364;-74
2023/03/09 03:51:20;;;;;;;1.77;0.90;;;13.80;52.40;;;;;;5088386;28;45302;-73
2023/03/09 03:53:48;;;;;;;1.17;0.68;;;13.80;52.40;;;;;;5088429;28;45353;-73
2023/03/09 03:56:15;;;;;;;1.33;0.88;;;13.80;52.40;;;;;;5088260;28;45372;-73
2023/03/09 03:58:42;;;;;;;0.75;0.73;;;13.70;52.30;;;;;;5088176;28;45520;-73
2023/03/09 04:01:09;;;;;;;0.77;0.75;;;13.70;52.30;;;;;;5088245;28;45412;-74
2023/03/09 04:03:36;;;;;;;0.88;0.77;;;13.70;52.30;;;;;;5088281;28;45276;-73
2023/03/09 04:06:03;;;;;;;0.55;0.55;;;13.70;52.30;;;;;;5087865;28;45451;-74
2023/03/09 04:08:30;;;;;;;1.15;0.88;;;13.70;52.30;;;;;;5087930;28;45268;-73
2023/03/09 04:10:59;;;;;;;0.70;0.70;;;13.70;52.20;;;;;;5088159;28;45306;-73
2023/03/09 04:13:26;;;;;;;0.75;0.70;;;13.70;52.20;;;;;;5088442;28;45399;-73
2023/03/09 04:15:52;;;;;;;0.77;0.68;;;13.70;52.20;;;;;;5087789;28;45267;-75
2023/03/09 04:18:19;;;;;;;0.55;0.50;;;13.70;52.80;;;;;;5087949;28;45316;-73
2023/03/09 04:20:46;;;;;;;1.05;0.80;;;13.70;52.20;;;;;;5088128;28;45253;-74
2023/03/09 04:23:13;;;;;;;0.75;0.75;;;13.70;52.10;;;;;;5088040;28;45393;-74
2023/03/09 04:25:40;;;;;;;0.80;0.80;;;13.70;52.20;;;;;;5087568;28;46492;-75
2023/03/09 04:28:08;;;;;;;0.82;0.80;;;13.70;52.20;;;;;;5087829;28;45316;-73
2023/03/09 04:30:35;;;;;;;0.80;0.80;;;13.70;52.10;;;;;;5087890;28;45293;-73
2023/03/09 04:33:02;;;;;;;0.57;0.55;;;13.70;52.10;;;;;;5088020;28;45460;-73
2023/03/09 04:35:29;;;;;;;0.93;0.93;;;13.70;52.10;;;;;;5087443;28;46343;-74
2023/03/09 04:37:56;;;;;;;0.73;0.73;;;13.70;52.10;;;;;;5087594;28;45305;-73
2023/03/09 04:40:26;;;;;;;1.40;0.93;;;13.70;52.10;;;;;;5087582;28;45304;-74
2023/03/09 04:42:54;;;;;;;0.77;0.77;;;13.70;52.70;;;;;;5087511;28;45436;-74
2023/03/09 04:45:22;;;;;;;1.02;0.90;;;13.70;52.00;;;;;;5087547;28;45490;-75
2023/03/09 04:47:49;;;;;;;0.95;0.80;;;13.70;52.10;;;;;;5087718;28;45373;-74
2023/03/09 04:50:16;;;;;;;0.65;0.65;;;13.70;52.00;;;;;;5087462;28;45252;-74
2023/03/09 04:52:43;;;;;;;0.93;0.82;;;13.70;52.00;;;;;;5087621;28;45383;-74
2023/03/09 04:55:10;;;;;;;0.60;0.60;;;13.70;52.00;;;;;;5087073;28;45367;-74
2023/03/09 04:57:37;;;;;;;0.80;0.80;;;13.70;52.10;;;;;;5087255;28;45304;-74
2023/03/09 05:00:08;;;;;;;0.60;0.60;;;13.70;52.10;;;;;;5087008;27;45237;-73
2023/03/09 05:02:36;;;;;;;0.50;0.50;;;13.70;52.10;;;;;;5087426;28;45340;-74
2023/03/09 05:05:03;;;;;;;0.95;0.82;;;13.70;52.10;;;;;;5086900;28;45252;-73
2023/03/09 05:07:30;;;;;;;0.73;0.73;;;13.60;52.10;;;;;;5086946;28;45357;-73
2023/03/09 05:09:56;;;;;;;0.73;0.70;;;13.60;52.10;;;;;;5087129;28;45205;-73
2023/03/09 05:12:30;;;;;;;0.75;0.75;;;13.60;52.20;;;;;;5087300;28;45434;-75
2023/03/09 05:14:57;;;;;;;0.80;0.80;;;13.60;52.60;;;;;;5086567;28;46421;-74
2023/03/09 05:17:24;;;;;;;0.50;0.50;;;13.60;52.20;;;;;;5086720;28;45333;-74
2023/03/09 05:19:53;;;;;;;0.70;0.70;;;13.60;52.20;;;;;;5087006;28;45367;-75
2023/03/09 05:22:19;;;;;;;0.40;0.40;;;13.60;52.20;;;;;;5087073;28;45258;-73
2023/03/09 05:24:46;;;;;;;1.13;0.70;;;13.60;52.20;;;;;;5086792;28;47407;-73
2023/03/09 05:27:13;;;;;;;0.88;0.82;;;13.60;52.00;;;;;;5086729;28;45382;-73
2023/03/09 05:29:40;;;;;;;0.47;0.47;;;13.60;52.10;;;;;;5086818;28;45314;-74
2023/03/09 05:32:08;;;;;;;0.95;0.50;;;13.60;52.10;;;;;;5086774;28;45320;-73
2023/03/09 05:34:35;;;;;;;0.60;0.55;;;13.60;52.10;;;;;;5086577;28;47301;-74
2023/03/09 05:37:04;;;;;;;0.90;0.80;;;13.60;52.10;;;;;;5086572;28;45331;-73
2023/03/09 05:39:31;;;;;;;1.60;0.75;;;13.60;52.00;;;;;;5086570;28;45367;-73
2023/03/09 05:41:58;;;;;;;0.45;0.43;;;13.60;51.80;;;;;;5086737;28;45173;-73
2023/03/09 05:44:25;;;;;;;1.00;0.73;;;13.60;52.10;;;;;;5086235;28;45257;-74
2023/03/09 05:46:52;;;;;;;0.90;0.65;;;13.60;52.00;;;;;;5086422;28;45273;-73
2023/03/09 05:49:19;;;;;;;0.50;0.50;;;13.60;52.10;;;;;;5086576;28;45336;-75
2023/03/09 05:51:46;;;;;;;0.60;0.60;;;13.60;52.10;;;;;;5086561;28;45341;-73
2023/03/09 05:54:16;;;;;;;0.50;0.50;;;13.60;52.00;;;;;;5086034;28;46665;-73
2023/03/09 05:56:43;;;;;;;0.75;0.50;;;13.60;52.10;;;;;;5085682;28;45384;-73
2023/03/09 05:59:10;;;;;;;0.60;0.60;;;13.60;51.80;;;;;;5086595;28;45309;-73
2023/03/09 06:01:37;;;;;;;0.85;0.63;;;13.60;52.00;;;;;;5086390;28;45450;-73
2023/03/09 06:04:04;;;;;;;0.88;0.50;;;13.60;51.80;;;;;;5086082;28;46350;-73
2023/03/09 06:06:32;;;;;;;0.85;0.60;;;13.60;51.80;;;;;;5086036;28;45147;-74
2023/03/09 06:08:59;;;;;;;0.50;0.50;;;13.60;52.00;;;;;;5086325;28;45480;-73
2023/03/09 06:11:27;;;;;;;0.47;0.47;;;13.50;52.00;;;;;;5085782;28;45371;-73
2023/03/09 06:13:54;;;;;;;0.80;0.50;;;13.50;52.00;;;;;;5085178;28;46422;-74
2023/03/09 06:16:22;;;;;;;1.20;0.55;;;13.50;51.90;;;;;;5085481;28;45281;-75
2023/03/09 06:18:49;;;;;;;0.65;0.60;;;13.50;52.10;;;;;;5085977;28;45313;-73
2023/03/09 06:21:16;;;;;;;0.70;0.70;;;13.50;51.90;;;;;;5086176;28;45376;-73
2023/03/09 06:23:43;;;;;;;0.60;0.60;;;13.50;51.80;;;;;;5085846;28;47456;-74
2023/03/09 06:26:11;;;;;;;1.45;0.68;;;13.50;51.90;;;;;;5085711;28;45250;-75
2023/03/09 06:28:39;;;;;;;0.55;0.38;;;13.60;51.80;;;;;;5086013;28;45392;-74
2023/03/09 06:31:07;;;;;;;0.57;0.57;;;13.60;51.70;;;;;;5086050;28;45483;-75
2023/03/09 06:33:34;;;;;;;0.75;0.60;;;13.60;51.70;;;;;;5085474;28;46665;-74
2023/03/09 06:36:01;;;;;;;0.65;0.57;;;13.60;51.70;;;;;;5085625;28;45248;-73
2023/03/09 06:38:28;;;;;;;0.52;0.52;;;13.60;51.80;;;;;;5085735;28;45435;-73
2023/03/09 06:40:55;;;;;;;0.50;0.50;;;13.60;51.70;;;;;;5085744;28;45450;-73
2023/03/09 06:43:22;;;;;;;0.73;0.47;;;13.60;51.70;;;;;;5085239;28;45638;-74
2023/03/09 06:45:50;;;;;;;0.85;0.50;;;13.60;51.50;;;;;;5085727;28;45353;-75
2023/03/09 06:48:17;;;;;;;1.73;0.68;;;13.60;51.60;;;;;;5085807;28;45321;-73
2023/03/09 06:50:44;;;;;;;0.40;0.40;;;13.60;51.90;;;;;;5085759;28;45384;-75
2023/03/09 06:53:11;;;;;;;0.60;0.60;;;13.60;51.80;;;;;;5085242;28;45729;-73
2023/03/09 06:55:39;;;;;;;0.50;0.50;;;13.60;51.90;;;;;;5085447;28;45175;-74
2023/03/09 06:58:05;;;;;;;0.93;0.70;;;13.60;51.80;;;;;;5085852;28;45232;-73
2023/03/09 07:00:37;;;;;;;0.60;0.60;;;13.60;52.00;;;;;;5086018;28;45607;-73
2023/03/09 07:03:05;;;;;;;0.50;0.50;;;13.60;52.00;;;;;;5085649;28;46365;-73
2023/03/09 07:05:32;;;;;;;0.70;0.70;;;13.50;51.90;;;;;;5085904;28;45250;-73
2023/03/09 07:07:59;;;;;;;0.80;0.55;;;13.60;51.80;;;;;;5086272;28;45375;-75
2023/03/09 07:10:26;;;;;;;0.45;0.45;;;13.60;52.10;;;;;;5086048;28;45327;-73
2023/03/09 07:12:53;;;;;;;0.82;0.70;;;13.60;51.90;;;;;;5085479;28;47283;-75
2023/03/09 07:15:20;;;;;;;0.50;0.43;;;13.60;51.90;;;;;;5085504;28;45283;-73
2023/03/09 07:17:47;;;;;;;0.75;0.57;;;13.60;51.90;;;;;;5086003;28;45325;-75
2023/03/09 07:20:16;;;;;;;1.10;0.80;;;13.60;52.20;;;;;;5086027;28;45376;-74
2023/03/09 07:22:42;;;;;;;1.33;0.40;;;13.60;52.20;;;;;;5085677;28;45373;-75
2023/03/09 07:25:10;;;;;;;1.52;0.80;;;13.60;52.20;;;;;;5089225;28;45212;-74
2023/03/09 07:27:37;;;;;;;1.38;0.50;;;13.60;52.30;;;;;;5089055;28;45251;-73
2023/03/09 07:30:04;;;;;;;2.08;0.65;;;13.60;52.40;;;;;;5089095;28;45316;-73
2023/03/09 07:32:31;;;;;;;1.23;0.45;;;13.60;52.40;;;;;;5088924;28;47323;-73
2023/03/09 07:34:58;;;;;;;1.27;0.50;;;13.60;52.00;;;;;;5088636;28;45247;-73
2023/03/09 07:37:26;;;;;;;0.47;0.40;;;13.60;52.20;;;;;;5088568;28;45261;-74
2023/03/09 07:39:53;;;;;;;1.10;0.70;;;13.60;52.20;;;;;;5089182;28;45521;-75
2023/03/09 07:42:19;;;;;;;0.85;0.50;;;13.60;52.20;;;;;;5088515;28;46379;-73
2023/03/09 07:44:46;;;;;;;1.38;0.55;;;13.60;52.30;;;;;;5088689;28;45314;-74
2023/03/09 07:47:13;;;;;;;1.17;0.60;;;13.60;52.40;;;;;;5088751;28;45378;-74
2023/03/09 07:49:40;;;;;;;0.77;0.60;;;13.60;52.40;;;;;;5088778;28;45295;-75
2023/03/09 07:52:07;;;;;;;1.20;0.65;;;13.60;52.40;;;;;;5088295;28;46352;-73
2023/03/09 07:54:36;;;;;;;0.63;0.63;;;13.60;52.10;;;;;;5088241;28;45477;-73
2023/03/09 07:57:03;;;;;;;1.27;0.50;;;13.60;52.10;;;;;;5088317;28;45295;-73
2023/03/09 07:59:31;;;;;;;0.70;0.60;;;13.60;52.30;;;;;;5088472;28;45224;-73
2023/03/09 08:01:57;;;;;;;1.02;0.65;;;13.70;52.40;;;;;;5087987;28;45607;-73
2023/03/09 08:04:25;;;;;;;1.02;0.60;;;13.70;53.00;;;;;;5088045;28;45320;-74
2023/03/09 08:06:52;;;;;;;0.63;0.50;;;13.70;52.20;;;;;;5088068;28;45364;-73
2023/03/09 08:09:19;;;;;;;1.35;0.63;;;13.60;52.30;;;;;;5088607;28;45470;-73
2023/03/09 08:11:48;;;;;;;0.88;0.75;;;13.60;52.40;;;;;;5087912;28;46310;-73
2023/03/09 08:14:15;;;;;;;0.47;0.47;;;13.60;52.50;;;;;;5087873;28;45347;-75
2023/03/09 08:16:42;;;;;;;1.70;0.68;;;13.60;52.50;;;;;;5087571;28;45446;-74
2023/03/09 08:19:09;;;;;;;1.10;0.32;;;13.60;52.60;;;;;;5088599;28;44727;-73
2023/03/09 08:21:37;;;;;;;0.70;0.52;;;13.70;52.50;;;;;;5087805;28;45530;-73
2023/03/09 08:24:04;;;;;;;1.55;0.80;;;13.70;52.60;;;;;;5087855;28;45515;-73
2023/03/09 08:26:30;;;;;;;0.80;0.40;;;13.70;52.60;;;;;;5088050;28;45372;-73
2023/03/09 08:28:59;;;;;;;1.98;0.85;;;13.70;52.50;;;;;;5088098;28;45453;-74
2023/03/09 08:31:26;;;;;;;0.85;0.60;;;13.70;52.50;;;;;;5087906;28;45272;-73
2023/03/09 08:33:52;;;;;;;2.20;0.70;;;13.70;52.60;;;;;;5087652;28;45316;-75
2023/03/09 08:36:20;;;;;;;1.35;0.45;;;13.70;52.60;;;;;;5087056;27;45355;-75
2023/03/09 08:38:47;;;;;;;2.17;0.90;;;13.70;52.60;;;;;;5088065;28;45262;-73
2023/03/09 08:41:14;;;;;;;0.75;0.55;;;13.70;52.60;;;;;;5087548;28;45317;-73
2023/03/09 08:43:41;;;;;;;0.43;0.43;;;13.70;52.50;;;;;;5087355;28;46387;-73
2023/03/09 08:46:11;;;;;;;1.15;0.73;;;13.70;52.60;;;;;;5087660;28;45185;-73
2023/03/09 08:48:38;;;;;;;0.60;0.60;;;13.70;52.50;;;;;;5087821;28;45313;-73
2023/03/09 08:51:08;;;;;;;0.95;0.68;;;13.80;52.60;;;;;;5087198;28;45298;-73
2023/03/09 08:53:35;;;;;;;1.55;0.57;;;13.80;53.20;;;;;;5087082;28;45344;-74
2023/03/09 08:56:03;;;;;;;1.73;0.50;;;13.80;52.60;;;;;;5087605;28;45421;-74
2023/03/09 08:58:30;;;;;;;0.60;0.32;;;13.80;52.50;;;;;;5087767;28;45422;-73
2023/03/09 09:00:57;;;;;;;0.90;0.70;;;13.80;52.40;;;;;;5087357;28;47476;-73
2023/03/09 09:03:26;;;;;;;2.42;0.50;;;13.80;52.40;;;;;;5087139;28;45455;-73
2023/03/09 09:05:52;;;;;;;2.22;0.70;;;13.90;52.60;;;;;;5087264;28;45301;-73
2023/03/09 09:08:19;;;;;;;0.47;0.45;;;13.90;52.40;;;;;;5087466;28;45245;-74
2023/03/09 09:10:46;;;;;;;0.95;0.70;;;13.90;52.20;;;;;;5087331;28;46222;-73
2023/03/09 09:13:13;;;;;;;2.25;0.70;;;13.90;52.20;;;;;;5086818;28;45322;-74
2023/03/09 09:15:41;;;;;;;0.85;0.65;;;13.90;52.00;;;;;;5087002;28;45467;-73
2023/03/09 09:18:08;;;;;;;1.65;0.50;;;13.90;52.30;;;;;;5087344;28;45470;-75
2023/03/09 09:20:36;;;;;;;1.60;0.50;;;13.90;52.20;;;;;;5086875;28;46384;-73
2023/03/09 09:23:03;;;;;;;0.50;0.50;;;13.90;52.30;;;;;;5086778;28;45336;-74
2023/03/09 09:25:30;;;;;;;0.90;0.50;;;13.90;52.20;;;;;;5087034;28;45368;-73
2023/03/09 09:27:57;;;;;;;0.60;0.45;;;13.90;52.10;;;;;;5086984;28;45302;-73
2023/03/09 09:30:24;;;;;;;0.93;0.60;;;13.90;52.10;;;;;;5086760;28;47291;-73
2023/03/09 09:32:51;;;;;;;1.05;0.52;;;13.90;52.00;;;;;;5086536;28;45432;-73
2023/03/09 09:35:17;;;;;;;0.60;0.57;;;14.00;51.80;;;;;;5086905;28;45205;-73
2023/03/09 09:37:46;;;;;;;0.55;0.50;;;14.00;51.80;;;;;;5086920;28;45321;-73
2023/03/09 09:40:14;;;;;;;0.65;0.60;;;14.00;51.70;;;;;;5086421;28;47496;-73
2023/03/09 09:42:43;;;;;;;1.55;0.50;;;14.00;51.80;;;;;;5086385;28;45364;-73
2023/03/09 09:45:22;;;;;;;0.95;0.70;;;14.00;51.80;;;;;;5086912;28;45322;-74
2023/03/09 09:47:49;;;;;;;0.88;0.60;;;14.00;51.80;;;;;;5086779;27;45324;-74
2023/03/09 09:50:17;;;;;;;2.28;0.65;;;14.00;51.80;;;;;;5086584;28;46666;-74
2023/03/09 09:52:47;;;;;;;2.22;0.57;;;14.10;51.80;;;;;;5086383;28;45197;-74
2023/03/09 09:55:19;;;;;;;0.60;0.60;;;14.10;51.90;;;;;;5086897;28;45332;-74
2023/03/09 09:57:46;;;;;;;0.55;0.52;;;14.10;51.90;;;;;;5087832;28;45438;-73
2023/03/09 10:00:15;;;;;;;0.52;0.43;;;14.10;52.50;;;;;;5087737;28;46730;-73
2023/03/09 10:02:50;;;;;;;0.52;0.40;;;14.10;51.90;;;;;;5087707;28;45333;-73
2023/03/09 10:05:18;;;;;;;0.43;0.43;;;14.20;52.00;;;;;;5087945;28;45269;-73
2023/03/09 10:07:46;;;;;;;0.82;0.63;;;14.20;52.10;;;;;;5088209;28;45186;-74
2023/03/09 10:10:18;;;;;;;0.50;0.50;;;14.20;52.10;;;;;;5087317;28;45482;-76
2023/03/09 10:12:45;;;;;;;1.23;0.43;;;14.20;52.00;;;;;;5087505;28;45268;-73
2023/03/09 10:15:13;;;;;;;0.30;0.30;;;14.20;52.20;;;;;;5087329;28;45419;-74
2023/03/09 10:17:42;;;;;;;1.20;0.70;;;14.30;52.20;;;;;;5087851;28;45432;-73
2023/03/09 10:20:14;;;;;;;1.25;0.50;;;14.30;52.80;;;;;;5087215;28;46451;-73
2023/03/09 10:22:42;;;;;;;0.57;0.50;;;14.30;52.20;;;;;;5086968;28;45357;-73
2023/03/09 10:25:12;;;;;;;0.75;0.55;;;14.30;52.30;;;;;;5087731;28;45240;-78
2023/03/09 10:27:41;;;;;;;0.73;0.60;;;14.30;52.40;;;;;;5089218;28;45480;-73
2023/03/09 10:30:16;;;;;;;2.25;0.90;;;14.30;52.60;;;;;;5088811;28;45653;-73
2023/03/09 10:32:48;;;;;;;1.05;0.73;;;14.30;52.40;;;;;;5088299;28;45158;-73
2023/03/09 10:35:20;;;;;;;1.48;0.98;;;14.30;52.20;;;;;;5087618;28;45368;-73
2023/03/09 10:37:48;;;;;;;0.77;0.60;;;14.40;52.20;;;;;;5087552;28;45317;-74
2023/03/09 10:40:18;;;;;;;0.93;0.52;;;14.30;52.00;;;;;;5087529;28;46556;-73
2023/03/09 10:42:45;;;;;;;1.60;0.60;;;14.40;52.20;;;;;;5086362;28;45418;-73
2023/03/09 10:45:20;;;;;;;0.63;0.43;;;14.30;52.10;;;;;;5074188;28;45328;-74
2023/03/09 10:47:58;;;;;;;0.75;0.38;;;14.30;52.30;;;;;;5084423;28;45472;-73
2023/03/09 10:50:26;;;;;;;5.30;0.85;;;14.30;52.60;;;;;;5086577;28;45422;-74
2023/03/09 10:52:53;;;;;;;4.32;0.68;;;14.40;52.70;;;;;;5086437;28;45254;-73
2023/03/09 10:55:35;;;;;;;1.70;0.60;;;14.40;52.70;;;;;;5087081;28;45203;-73
2023/03/09 10:58:03;;;;;;;2.05;0.65;;;14.40;53.10;;;;;;5085007;28;45337;-73
2023/03/09 11:00:30;;;;;;;2.58;0.70;;;14.40;53.60;;;;;;5080203;28;46339;-71
2023/03/09 11:02:59;;;;;;;3.33;0.70;;;14.50;52.70;;;;;;5090372;28;45455;-73
2023/03/09 11:05:27;;;;;;;2.25;0.70;;;14.50;52.70;;;;;;5088222;28;45412;-75
2023/03/09 11:07:55;;;;;;;3.65;1.83;;;14.60;52.60;;;;;;5071823;28;45120;-74
2023/03/09 11:10:27;;;;;;;2.80;0.65;;;14.70;52.40;;;;;;5070134;28;48629;-74
2023/03/09 11:12:56;;;;;;;1.50;0.70;;;14.80;52.30;;;;;;5089656;28;45343;-76
2023/03/09 11:15:28;;;;;;;3.15;0.80;;;14.90;52.50;;;;;;5090914;28;45419;-75
2023/03/09 11:17:56;;;;;;;1.40;0.68;;;15.00;53.70;;;;;;5077802;28;45367;-75
2023/03/09 11:20:33;;;;;;;2.30;0.85;;;15.10;53.00;;;;;;5087859;28;46292;-74
2023/03/09 11:23:18;;;;;;;1.35;0.77;;;15.20;52.80;;;;;;5069702;28;45383;-74
2023/03/09 11:26:02;;;;;;;0.88;0.68;;;15.30;52.50;;;;;;5071509;28;45298;-76
2023/03/09 11:28:39;;;;;;;1.77;0.80;;;15.30;52.50;;;;;;5075247;28;45285;-75
2023/03/09 11:31:11;;;;;;;3.63;0.65;;;15.40;52.20;;;;;;5069999;28;45420;-76
2023/03/09 11:33:38;;;;;;;1.67;0.60;;;15.40;52.70;;;;;;5071244;28;45494;-75
2023/03/09 11:36:05;;;;;;;2.25;0.70;;;15.40;52.10;;;;;;5084295;28;45414;-75
2023/03/09 11:38:32;;;;;;;1.17;0.80;;;15.50;52.20;;;;;;5090905;28;45305;-74
2023/03/09 11:41:07;;;;;;;2.25;0.70;;;15.60;51.90;;;;;;5090247;28;47413;-74
2023/03/09 11:43:37;;;;;;;2.08;0.90;;;15.70;51.80;;;;;;5090185;28;45273;-75
2023/03/09 11:46:06;;;;;;;3.00;0.60;;;15.80;51.80;;;;;;5090204;28;45352;-75
2023/03/09 11:48:35;;;;;;;1.73;1.08;;;15.90;51.40;;;;;;5084393;28;45552;-74
2023/03/09 11:51:04;;;;;;;2.95;0.73;;;15.90;51.30;;;;;;5089567;28;45317;-75
2023/03/09 11:53:31;;;;;;;1.17;0.70;;;16.00;51.40;;;;;;5073846;28;45409;-74
2023/03/09 11:56:01;;;;;;;4.72;0.68;;;16.00;51.10;;;;;;5089103;28;45326;-71
2023/03/09 11:58:30;;;;;;;3.05;0.82;;;16.20;50.80;;;;;;5074456;28;45325;-72
2023/03/09 12:01:06;;;;;;;5.32;0.90;;;16.40;50.50;;;;;;5068894;28;47335;-72
2023/03/09 12:03:33;;;;;;;1.27;0.82;;;16.40;50.10;;;;;;5069033;28;45327;-72
2023/03/09 12:06:01;;;;;;;6.45;1.20;;;16.40;50.30;;;;;;5082381;28;45187;-72
2023/03/09 12:08:29;;;;;;;2.28;0.68;;;16.40;50.50;;;;;;5089911;28;45380;-72
2023/03/09 12:11:00;;;;;;;1.35;0.63;;;16.30;50.70;;;;;;5087588;27;45320;-72
2023/03/09 12:13:28;;;;;;;0.80;0.80;;;16.30;50.70;;;;;;5089305;28;45301;-73
2023/03/09 12:15:59;;;;;;;1.17;0.73;;;16.40;50.60;;;;;;5088791;28;45399;-72
2023/03/09 12:18:29;;;;;;;3.53;0.95;;;16.70;50.20;;;;;;5069948;28;45209;-74
2023/03/09 12:20:57;;;;;;;6.85;1.50;;;16.90;49.90;;;;;;5070939;28;46689;-71
2023/03/09 12:23:51;;;;;;;2.00;1.10;;;17.00;49.40;;;;;;5089780;28;45271;-74
2023/03/09 12:26:29;;;;;;;4.45;1.10;;;17.00;49.50;;;;;;5054002;28;45368;-73
2023/03/09 12:29:01;;;;;;;5.43;1.20;;;17.00;49.50;;;;;;5090003;28;45205;-73
2023/03/09 12:31:29;;;;;;;5.85;1.02;;;17.10;49.40;;;;;;5089743;28;46363;-73
2023/03/09 12:34:07;;;;;;;2.55;1.05;;;17.10;49.30;;;;;;5087595;28;45205;-74
2023/03/09 12:36:43;;;;;;;3.17;1.25;;;17.10;49.20;;;;;;5076820;28;45462;-72
2023/03/09 12:39:33;;;;;;;2.03;1.00;;;17.10;49.20;;;;;;5089243;28;45498;-73
2023/03/09 12:42:04;;;;;;;2.45;1.20;;;17.00;49.40;;;;;;5087564;28;46883;-72
2023/03/09 12:44:57;;;;;;;2.08;1.17;;;16.80;49.90;;;;;;5085847;28;45485;-72
2023/03/09 12:47:42;;;;;;;2.65;0.90;;;16.70;50.20;;;;;;5068884;28;45329;-73
2023/03/09 12:50:24;;;;;;;1.20;0.82;;;16.60;50.40;;;;;;5067765;28;45380;-73
2023/03/09 12:53:01;;;;;;;1.08;0.90;;;16.50;50.70;;;;;;5068823;28;46738;-72
2023/03/09 12:55:48;;;;;;;1.77;0.93;;;16.50;50.70;;;;;;5083086;28;45351;-73